createdAt,value
2023-04-20T00:02:24.123Z,0.41
2023-04-20T00:04:53.922Z,0.37
2023-04-20T00:07:27.443Z,0.31
2023-04-20T00:09:58.556Z,0.26
2023-04-20T00:12:29.690Z,0.22
2023-04-20T00:15:00.904Z,0.17
2023-04-20T00:17:31.928Z,0.15
2023-04-20T00:20:03.876Z,0.15
2023-04-20T00:22:36.320Z,0.12
2023-04-20T00:25:08.838Z,0.07
2023-04-20T00:27:39.845Z,0.03
2023-04-20T00:30:14.450Z,0.03
2023-04-20T00:32:45.881Z,0.05
2023-04-20T00:35:17.059Z,0.09
2023-04-20T00:37:48.183Z,0.10
2023-04-20T00:40:19.271Z,0.12
2023-04-20T00:42:50.587Z,0.16
2023-04-20T00:45:22.367Z,0.18
2023-04-20T00:47:53.611Z,0.20
2023-04-20T00:50:24.951Z,0.20
2023-04-20T00:52:54.410Z,0.23
2023-04-20T00:55:26.493Z,0.28
2023-04-20T00:57:58.426Z,0.36
2023-04-20T01:00:29.583Z,0.45
2023-04-20T01:03:00.944Z,0.52
2023-04-20T01:05:32.409Z,0.60
2023-04-20T01:08:03.376Z,0.67
2023-04-20T01:10:34.743Z,0.75
2023-04-20T01:13:06.064Z,0.83
2023-04-20T01:15:36.326Z,0.92
2023-04-20T01:18:07.342Z,1.00
2023-04-20T01:20:38.631Z,1.08
2023-04-20T01:23:09.832Z,1.13
2023-04-20T01:25:41.789Z,1.20
2023-04-20T01:28:14.648Z,1.23
2023-04-20T01:30:59.747Z,1.26
2023-04-20T01:33:31.217Z,1.30
2023-04-20T01:36:02.645Z,1.31
2023-04-20T01:38:35.047Z,1.36
2023-04-20T01:41:08.310Z,1.38
2023-04-20T01:43:40.994Z,1.38
2023-04-20T01:46:12.269Z,1.43
2023-04-20T01:48:43.457Z,1.47
2023-04-20T01:51:14.726Z,1.50
2023-04-20T01:53:44.376Z,1.52
2023-04-20T01:56:15.570Z,1.50
2023-04-20T01:58:46.857Z,1.50
2023-04-20T02:01:19.062Z,1.53
2023-04-20T02:03:51.110Z,1.54
2023-04-20T02:06:22.484Z,1.55
2023-04-20T02:08:53.414Z,1.57
2023-04-20T02:11:24.245Z,1.58
2023-04-20T02:13:55.321Z,1.60
2023-04-20T02:16:29.483Z,1.63
2023-04-20T02:19:01.285Z,1.67
2023-04-20T02:21:32.761Z,1.68
2023-04-20T02:24:04.111Z,1.71
2023-04-20T02:26:35.525Z,1.72
2023-04-20T02:29:05.268Z,1.72
2023-04-20T02:31:36.606Z,1.70
2023-04-20T02:34:09.706Z,1.71
2023-04-20T02:36:41.064Z,1.74
2023-04-20T02:39:12.301Z,1.77
2023-04-20T02:41:43.456Z,1.79
2023-04-20T02:44:14.352Z,1.83
2023-04-20T02:46:45.741Z,1.85
2023-04-20T02:49:17.266Z,1.87
2023-04-20T02:51:48.569Z,1.89
2023-04-20T02:54:19.684Z,1.87
2023-04-20T02:56:50.971Z,1.84
2023-04-20T02:59:22.399Z,1.82
2023-04-20T03:01:52.044Z,1.79
2023-04-20T03:04:23.521Z,1.79
2023-04-20T03:06:53.826Z,1.77
2023-04-20T03:09:24.813Z,1.75
2023-04-20T03:11:56.668Z,1.72
2023-04-20T03:14:27.752Z,1.69
2023-04-20T03:16:59.059Z,1.69
2023-04-20T03:19:30.657Z,1.69
2023-04-20T03:22:01.796Z,1.68
2023-04-20T03:24:32.989Z,1.70
2023-04-20T03:27:04.000Z,1.70
2023-04-20T03:29:35.169Z,1.68
2023-04-20T03:32:06.832Z,1.66
2023-04-20T03:34:37.981Z,1.63
2023-04-20T03:37:09.134Z,1.63
2023-04-20T03:39:40.461Z,1.66
2023-04-20T03:42:11.455Z,1.70
2023-04-20T03:44:42.448Z,1.74
2023-04-20T03:47:13.399Z,1.76
2023-04-20T03:49:44.758Z,1.79
2023-04-20T03:52:15.877Z,1.84
2023-04-20T03:54:46.754Z,1.89
2023-04-20T03:57:17.595Z,1.92
2023-04-20T03:59:49.182Z,1.96
2023-04-20T04:02:22.522Z,1.97
2023-04-20T04:04:54.066Z,2.00
2023-04-20T04:07:24.985Z,2.02
2023-04-20T04:09:55.992Z,2.04
2023-04-20T04:12:27.272Z,2.04
2023-04-20T04:14:56.961Z,2.07
2023-04-20T04:17:28.172Z,2.10
2023-04-20T04:19:59.381Z,2.15
2023-04-20T04:22:30.670Z,2.21
2023-04-20T04:25:01.893Z,2.22
2023-04-20T04:27:35.016Z,2.15
2023-04-20T04:30:06.608Z,2.02
2023-04-20T04:32:38.425Z,1.95
2023-04-20T04:35:11.396Z,1.95
2023-04-20T04:37:43.108Z,2.02
2023-04-20T04:40:15.107Z,2.12
2023-04-20T04:42:47.801Z,2.24
2023-04-20T04:45:19.141Z,2.40
2023-04-20T04:47:52.967Z,2.53
2023-04-20T04:50:24.371Z,2.65
2023-04-20T04:52:55.531Z,2.77
2023-04-20T04:55:26.639Z,2.88
2023-04-20T04:57:58.457Z,2.98
2023-04-20T05:00:31.451Z,3.06
2023-04-20T05:03:02.684Z,3.19
2023-04-20T05:05:33.985Z,3.31
2023-04-20T05:08:04.992Z,3.43
2023-04-20T05:10:36.266Z,3.56
2023-04-20T05:13:07.402Z,3.67
2023-04-20T05:15:38.403Z,3.77
2023-04-20T05:18:09.955Z,3.85
2023-04-20T05:20:41.521Z,3.92
2023-04-20T05:23:12.544Z,3.97
2023-04-20T05:25:44.084Z,4.00
2023-04-20T05:28:15.170Z,4.06
2023-04-20T05:30:44.773Z,4.08
2023-04-20T05:33:15.626Z,4.11
2023-04-20T05:35:45.684Z,4.16
2023-04-20T05:38:16.671Z,4.19
2023-04-20T05:40:47.843Z,4.23
2023-04-20T05:43:19.478Z,4.27
2023-04-20T05:45:51.417Z,4.32
2023-04-20T05:48:22.566Z,4.36
2023-04-20T05:50:53.519Z,4.40
2023-04-20T05:53:24.440Z,4.46
2023-04-20T05:55:55.487Z,4.50
2023-04-20T05:58:27.344Z,4.57
2023-04-20T06:00:58.186Z,4.63
2023-04-20T06:03:29.771Z,4.69
2023-04-20T06:06:00.982Z,4.77
2023-04-20T06:08:32.993Z,4.85
2023-04-20T06:11:02.767Z,4.93
2023-04-20T06:13:33.693Z,4.98
2023-04-20T06:16:09.660Z,5.06
2023-04-20T06:18:41.024Z,5.14
2023-04-20T06:21:13.852Z,5.24
2023-04-20T06:23:45.753Z,5.33
2023-04-20T06:26:17.326Z,5.42
2023-04-20T06:28:48.562Z,5.49
2023-04-20T06:31:20.002Z,5.57
2023-04-20T06:33:50.974Z,5.62
2023-04-20T06:36:22.082Z,5.67
2023-04-20T06:38:51.757Z,5.75
2023-04-20T06:41:22.812Z,5.78
2023-04-20T06:43:53.880Z,5.78
2023-04-20T06:46:25.220Z,5.77
2023-04-20T06:48:56.045Z,5.77
2023-04-20T06:51:27.713Z,5.80
2023-04-20T06:53:58.672Z,5.86
2023-04-20T06:56:29.628Z,5.95
2023-04-20T06:59:00.705Z,6.03
2023-04-20T07:01:32.557Z,6.11
2023-04-20T07:04:02.108Z,6.23
2023-04-20T07:06:33.304Z,6.37
2023-04-20T07:09:05.038Z,6.55
2023-04-20T07:11:36.676Z,6.77
2023-04-20T07:14:07.581Z,6.94
2023-04-20T07:16:37.088Z,7.10
2023-04-20T07:19:08.365Z,7.22
2023-04-20T07:21:39.785Z,7.35
2023-04-20T07:24:11.138Z,7.44
2023-04-20T07:26:42.311Z,7.48
2023-04-20T07:29:13.322Z,7.60
2023-04-20T07:31:44.311Z,7.68
2023-04-20T07:34:15.630Z,7.76
2023-04-20T07:36:46.767Z,7.88
2023-04-20T07:39:18.002Z,7.97
2023-04-20T07:41:50.554Z,8.07
2023-04-20T07:44:21.748Z,8.14
2023-04-20T07:46:52.954Z,8.20
2023-04-20T07:49:22.260Z,8.21
2023-04-20T07:51:55.446Z,8.17
2023-04-20T07:54:32.353Z,8.18
2023-04-20T07:57:03.883Z,8.21
2023-04-20T07:59:35.057Z,8.28
2023-04-20T08:02:04.882Z,8.42
2023-04-20T08:04:36.938Z,8.53
2023-04-20T08:07:08.623Z,8.66
2023-04-20T08:09:39.779Z,8.71
2023-04-20T08:12:10.932Z,8.76
2023-04-20T08:14:42.453Z,8.85
2023-04-20T08:17:13.485Z,8.90
2023-04-20T08:19:44.642Z,8.94
2023-04-20T08:22:17.226Z,8.93
2023-04-20T08:24:48.515Z,8.90
2023-04-20T08:27:19.470Z,8.84
2023-04-20T08:29:50.737Z,8.77
2023-04-20T08:32:23.966Z,8.64
2023-04-20T08:34:55.352Z,8.57
2023-04-20T08:37:27.303Z,8.50
2023-04-20T08:39:58.260Z,8.37
2023-04-20T08:42:27.854Z,8.33
2023-04-20T08:45:00.338Z,8.26
2023-04-20T08:47:32.568Z,8.29
2023-04-20T08:50:06.766Z,8.34
2023-04-20T08:52:39.492Z,8.39
2023-04-20T08:55:11.554Z,8.48
2023-04-20T08:57:42.734Z,8.54
2023-04-20T09:00:15.915Z,8.55
2023-04-20T09:02:55.104Z,8.56
2023-04-20T09:05:30.888Z,8.58
2023-04-20T09:08:02.591Z,8.65
2023-04-20T09:10:44.318Z,8.74
2023-04-20T09:13:25.209Z,8.85
2023-04-20T09:15:56.102Z,8.92
2023-04-20T09:18:25.979Z,8.93
2023-04-20T09:20:56.987Z,8.93
2023-04-20T09:23:26.574Z,8.95
2023-04-20T09:25:56.050Z,8.96
2023-04-20T09:28:36.363Z,9.04
2023-04-20T09:31:07.447Z,9.12
2023-04-20T09:33:37.809Z,9.21
2023-04-20T09:36:11.057Z,9.25
2023-04-20T09:38:42.146Z,9.30
2023-04-20T09:41:12.133Z,9.38
2023-04-20T09:43:44.199Z,9.49
2023-04-20T09:46:37.246Z,9.64
2023-04-20T09:49:10.651Z,9.76
2023-04-20T09:51:45.319Z,9.87
2023-04-20T09:54:17.596Z,10.03
2023-04-20T09:56:50.681Z,10.19
2023-04-20T09:59:23.312Z,10.32
2023-04-20T10:01:54.580Z,10.42
2023-04-20T10:04:26.230Z,10.51
2023-04-20T10:07:03.411Z,10.60
2023-04-20T10:09:37.908Z,10.70
2023-04-20T10:12:13.931Z,10.78
2023-04-20T10:14:45.860Z,10.90
2023-04-20T10:17:18.289Z,11.03
2023-04-20T10:19:49.626Z,11.12
2023-04-20T10:22:33.118Z,11.20
2023-04-20T10:25:17.675Z,11.25
2023-04-20T10:27:58.160Z,11.29
2023-04-20T10:30:30.482Z,11.33
2023-04-20T10:33:12.833Z,11.40
2023-04-20T10:35:51.128Z,11.44
2023-04-20T10:38:33.719Z,11.57
2023-04-20T10:41:10.867Z,11.64
2023-04-20T10:43:43.413Z,11.68
2023-04-20T10:46:22.706Z,11.77
2023-04-20T10:48:55.096Z,11.88
2023-04-20T10:51:26.861Z,11.99
2023-04-20T10:54:06.205Z,12.06
2023-04-20T10:56:42.535Z,12.12
2023-04-20T10:59:14.725Z,12.19
2023-04-20T11:01:47.777Z,12.23
2023-04-20T11:04:19.515Z,12.33
2023-04-20T11:06:51.044Z,12.44
2023-04-20T11:09:26.500Z,12.53
2023-04-20T11:12:04.691Z,12.62
2023-04-20T11:14:38.352Z,12.70
2023-04-20T11:17:09.510Z,12.74
2023-04-20T11:19:40.896Z,12.79
2023-04-20T11:22:21.596Z,12.88
2023-04-20T11:24:52.739Z,12.94
2023-04-20T11:27:25.003Z,13.04
2023-04-20T11:30:00.244Z,13.07
2023-04-20T11:32:31.699Z,13.09
2023-04-20T11:35:07.918Z,13.09
2023-04-20T11:37:51.376Z,13.13
2023-04-20T11:40:23.030Z,13.17
2023-04-20T11:42:54.124Z,13.18
2023-04-20T11:45:25.153Z,13.19
2023-04-20T11:47:56.877Z,13.22
2023-04-20T11:50:28.448Z,13.26
2023-04-20T11:52:59.454Z,13.31
2023-04-20T11:55:30.597Z,13.37
2023-04-20T11:58:01.630Z,13.36
2023-04-20T12:00:33.028Z,13.43
2023-04-20T12:03:04.204Z,13.50
2023-04-20T12:05:35.567Z,13.60
2023-04-20T12:08:08.367Z,13.64
2023-04-20T12:10:40.043Z,13.63
2023-04-20T12:13:11.048Z,13.70
2023-04-20T12:15:42.527Z,13.75
2023-04-20T12:18:13.647Z,13.79
2023-04-20T12:20:45.891Z,13.82
2023-04-20T12:23:17.134Z,13.83
2023-04-20T12:25:49.443Z,13.90
2023-04-20T12:28:20.399Z,13.97
2023-04-20T12:30:51.693Z,14.05
2023-04-20T12:33:22.679Z,14.10
2023-04-20T12:35:54.037Z,14.14
2023-04-20T12:38:25.072Z,14.23
2023-04-20T12:40:56.137Z,14.29
2023-04-20T12:43:27.337Z,14.26
2023-04-20T12:45:58.399Z,14.17
2023-04-20T12:48:29.321Z,14.17
2023-04-20T12:51:00.674Z,14.18
2023-04-20T12:53:31.909Z,14.20
2023-04-20T12:56:03.409Z,14.23
2023-04-20T12:58:34.871Z,14.31
2023-04-20T13:01:06.031Z,14.36
2023-04-20T13:03:37.590Z,14.33
2023-04-20T13:06:14.261Z,14.34
2023-04-20T13:08:45.643Z,14.37
2023-04-20T13:11:18.004Z,14.37
2023-04-20T13:13:49.052Z,14.39
2023-04-20T13:16:20.199Z,14.39
2023-04-20T13:18:51.669Z,14.41
2023-04-20T13:21:22.808Z,14.46
2023-04-20T13:23:56.213Z,14.46
2023-04-20T13:26:27.846Z,14.48
2023-04-20T13:28:59.037Z,14.52
2023-04-20T13:31:31.317Z,14.54
2023-04-20T13:34:02.604Z,14.56
2023-04-20T13:36:33.884Z,14.57
2023-04-20T13:39:05.092Z,14.54
2023-04-20T13:41:36.080Z,14.49
2023-04-20T13:44:07.940Z,14.46
2023-04-20T13:46:38.878Z,14.42
2023-04-20T13:49:12.026Z,14.39
2023-04-20T13:51:44.770Z,14.32
2023-04-20T13:54:16.009Z,14.28
2023-04-20T13:56:47.252Z,14.30
2023-04-20T13:59:18.108Z,14.30
2023-04-20T14:01:49.250Z,14.30
2023-04-20T14:04:20.582Z,14.35
2023-04-20T14:06:52.370Z,14.43
2023-04-20T14:09:23.391Z,14.55
2023-04-20T14:11:56.485Z,14.75
2023-04-20T14:14:28.313Z,15.21
2023-04-20T14:16:59.262Z,15.63
2023-04-20T14:19:30.290Z,15.87
2023-04-20T14:22:01.419Z,15.80
2023-04-20T14:24:32.482Z,15.55
2023-04-20T14:27:15.846Z,15.34
2023-04-20T14:29:46.960Z,15.36
2023-04-20T14:32:18.937Z,15.60
2023-04-20T14:34:50.744Z,15.83
2023-04-20T14:37:21.766Z,16.03
2023-04-20T14:39:52.929Z,16.17
2023-04-20T14:42:24.721Z,16.31
2023-04-20T14:44:56.995Z,16.51
2023-04-20T14:47:28.147Z,16.64
2023-04-20T14:49:59.384Z,16.60
2023-04-20T14:52:30.293Z,16.58
2023-04-20T14:55:01.364Z,16.53
2023-04-20T14:57:34.356Z,16.47
2023-04-20T15:00:10.558Z,16.40
2023-04-20T15:02:42.211Z,16.34
2023-04-20T15:05:13.702Z,16.24
2023-04-20T15:07:45.893Z,16.19
2023-04-20T15:10:17.013Z,16.21
2023-04-20T15:12:48.947Z,16.09
2023-04-20T15:15:20.230Z,16.01
2023-04-20T15:17:51.945Z,15.81
2023-04-20T15:20:23.002Z,15.72
2023-04-20T15:22:54.324Z,15.60
2023-04-20T15:25:25.582Z,15.48
2023-04-20T15:27:56.709Z,15.34
2023-04-20T15:30:27.930Z,15.21
2023-04-20T15:33:04.495Z,15.18
2023-04-20T15:35:36.686Z,15.15
2023-04-20T15:38:07.782Z,15.13
2023-04-20T15:40:39.830Z,15.12
2023-04-20T15:43:11.434Z,14.97
2023-04-20T15:45:44.704Z,14.88
2023-04-20T15:48:16.316Z,14.74
2023-04-20T15:50:51.216Z,14.58
2023-04-20T15:53:22.888Z,14.44
2023-04-20T15:55:53.880Z,14.32
2023-04-20T15:58:25.163Z,14.19
2023-04-20T16:00:56.395Z,14.13
2023-04-20T16:03:27.789Z,14.12
2023-04-20T16:05:59.103Z,14.10
2023-04-20T16:08:30.265Z,14.08
2023-04-20T16:11:01.392Z,14.03
2023-04-20T16:13:32.846Z,13.96
2023-04-20T16:16:04.159Z,13.90
2023-04-20T16:18:35.483Z,13.84
2023-04-20T16:21:07.527Z,13.82
2023-04-20T16:23:38.649Z,13.82
2023-04-20T16:26:09.713Z,13.80
2023-04-20T16:28:41.022Z,13.79
2023-04-20T16:31:12.219Z,13.75
2023-04-20T16:33:43.848Z,13.72
2023-04-20T16:36:16.334Z,13.67
2023-04-20T16:38:47.483Z,13.58
2023-04-20T16:41:18.622Z,13.46
2023-04-20T16:43:49.638Z,13.33
2023-04-20T16:46:22.373Z,13.22
2023-04-20T16:48:54.644Z,13.09
2023-04-20T16:51:25.882Z,13.01
2023-04-20T16:53:57.197Z,12.92
2023-04-20T16:56:28.308Z,12.82
2023-04-20T16:58:59.432Z,12.74
2023-04-20T17:01:30.503Z,12.65
2023-04-20T17:04:01.757Z,12.57
2023-04-20T17:06:33.122Z,12.52
2023-04-20T17:09:07.283Z,12.47
2023-04-20T17:11:39.730Z,12.42
2023-04-20T17:14:11.269Z,12.36
2023-04-20T17:16:42.294Z,12.31
2023-04-20T17:19:13.820Z,12.25
2023-04-20T17:21:45.748Z,12.20
2023-04-20T17:24:17.495Z,12.14
2023-04-20T17:26:48.896Z,12.08
2023-04-20T17:29:20.002Z,12.02
2023-04-20T17:31:51.289Z,11.95
2023-04-20T17:34:22.451Z,11.88
2023-04-20T17:36:53.809Z,11.84
2023-04-20T17:39:26.133Z,11.77
2023-04-20T17:41:57.872Z,11.73
2023-04-20T17:44:28.867Z,11.66
2023-04-20T17:47:01.246Z,11.59
2023-04-20T17:49:32.579Z,11.53
2023-04-20T17:52:03.585Z,11.44
2023-04-20T17:54:35.013Z,11.37
2023-04-20T17:57:06.981Z,11.28
2023-04-20T17:59:37.991Z,11.20
2023-04-20T18:02:09.066Z,11.14
2023-04-20T18:04:40.514Z,11.08
2023-04-20T18:07:13.182Z,11.02
2023-04-20T18:09:44.630Z,10.97
2023-04-20T18:12:15.768Z,10.91
2023-04-20T18:14:46.838Z,10.87
2023-04-20T18:17:17.808Z,10.83
2023-04-20T18:19:49.085Z,10.76
2023-04-20T18:22:20.093Z,10.69
2023-04-20T18:24:51.213Z,10.62
2023-04-20T18:27:24.239Z,10.55
2023-04-20T18:29:56.222Z,10.48
2023-04-20T18:32:27.852Z,10.42
2023-04-20T18:35:00.396Z,10.37
2023-04-20T18:37:32.835Z,10.32
2023-04-20T18:40:04.680Z,10.28
2023-04-20T18:42:36.037Z,10.24
2023-04-20T18:45:08.753Z,10.22
2023-04-20T18:47:39.794Z,10.19
2023-04-20T18:50:13.172Z,10.17
2023-04-20T18:52:44.355Z,10.15
2023-04-20T18:55:15.484Z,10.11
2023-04-20T18:57:46.749Z,10.11
2023-04-20T19:00:16.528Z,10.10
2023-04-20T19:02:47.647Z,10.06
2023-04-20T19:05:18.831Z,10.05
2023-04-20T19:07:49.939Z,10.04
2023-04-20T19:10:21.308Z,10.01
2023-04-20T19:12:52.663Z,9.99
2023-04-20T19:15:25.842Z,9.97
2023-04-20T19:17:57.751Z,9.92
2023-04-20T19:20:29.128Z,9.90
2023-04-20T19:23:00.510Z,9.87
2023-04-20T19:25:32.078Z,9.84
2023-04-20T19:28:03.277Z,9.79
2023-04-20T19:30:34.345Z,9.79
2023-04-20T19:33:06.094Z,9.76
2023-04-20T19:35:37.663Z,9.74
2023-04-20T19:38:08.990Z,9.72
2023-04-20T19:40:40.145Z,9.71
2023-04-20T19:43:11.710Z,9.70
2023-04-20T19:45:43.300Z,9.69
2023-04-20T19:48:14.764Z,9.68
2023-04-20T19:50:45.749Z,9.68
2023-04-20T19:53:17.173Z,9.66
2023-04-20T19:55:48.556Z,9.65
2023-04-20T19:58:19.659Z,9.62
2023-04-20T20:00:51.256Z,9.62
2023-04-20T20:03:23.100Z,9.59
2023-04-20T20:05:54.451Z,9.58
2023-04-20T20:08:25.540Z,9.58
2023-04-20T20:10:56.858Z,9.58
2023-04-20T20:13:27.992Z,9.57
2023-04-20T20:16:00.380Z,9.58
2023-04-20T20:18:31.950Z,9.59
2023-04-20T20:21:03.459Z,9.60
2023-04-20T20:23:34.527Z,9.60
2023-04-20T20:26:05.772Z,9.63
2023-04-20T20:28:36.917Z,9.64
2023-04-20T20:31:08.038Z,9.62
2023-04-20T20:33:39.514Z,9.65
2023-04-20T20:36:11.043Z,9.67
2023-04-20T20:38:43.842Z,9.68
2023-04-20T20:41:16.418Z,9.67
2023-04-20T20:43:49.827Z,9.68
2023-04-20T20:46:21.364Z,9.69
2023-04-20T20:48:52.414Z,9.69
2023-04-20T20:51:23.601Z,9.70
2023-04-20T20:53:56.253Z,9.71
2023-04-20T20:56:27.434Z,9.71
2023-04-20T20:58:58.660Z,9.71
2023-04-20T21:01:30.665Z,9.75
2023-04-20T21:04:01.904Z,9.78
2023-04-20T21:06:33.753Z,9.79
2023-04-20T21:09:06.025Z,9.81
2023-04-20T21:11:37.514Z,9.83
2023-04-20T21:14:08.653Z,9.82
2023-04-20T21:16:39.876Z,9.83
2023-04-20T21:19:11.785Z,9.83
2023-04-20T21:21:42.922Z,9.82
2023-04-20T21:24:12.308Z,9.80
2023-04-20T21:26:43.575Z,9.76
2023-04-20T21:29:14.800Z,9.74
2023-04-20T21:31:46.439Z,9.75
2023-04-20T21:34:17.686Z,9.74
2023-04-20T21:36:49.686Z,9.72
2023-04-20T21:39:21.116Z,9.69
2023-04-20T21:41:52.261Z,9.66
2023-04-20T21:44:22.035Z,9.65
2023-04-20T21:46:53.230Z,9.62
2023-04-20T21:49:24.696Z,9.61
2023-04-20T21:51:55.834Z,9.58
2023-04-20T21:54:26.859Z,9.56
2023-04-20T21:56:57.311Z,9.55
2023-04-20T21:59:28.718Z,9.52
2023-04-20T22:01:59.958Z,9.51
2023-04-20T22:04:32.261Z,9.53
2023-04-20T22:07:03.577Z,9.52
2023-04-20T22:09:35.583Z,9.49
2023-04-20T22:12:09.035Z,9.49
2023-04-20T22:14:40.535Z,9.46
2023-04-20T22:17:11.879Z,9.43
2023-04-20T22:19:45.157Z,9.41
2023-04-20T22:22:16.163Z,9.37
2023-04-20T22:24:49.003Z,9.35
2023-04-20T22:27:20.146Z,9.32
2023-04-20T22:29:51.346Z,9.28
2023-04-20T22:32:21.899Z,9.25
2023-04-20T22:34:53.106Z,9.20
2023-04-20T22:37:24.421Z,9.17
2023-04-20T22:39:53.824Z,9.16
2023-04-20T22:42:24.932Z,9.11
2023-04-20T22:44:56.277Z,9.08
2023-04-20T22:47:27.373Z,9.08
2023-04-20T22:49:58.462Z,9.08
2023-04-20T22:52:27.810Z,9.08
2023-04-20T22:54:58.842Z,9.07
2023-04-20T22:57:30.098Z,9.05
2023-04-20T23:00:01.564Z,9.02
2023-04-20T23:02:33.199Z,9.01
2023-04-20T23:05:04.828Z,8.97
2023-04-20T23:07:36.513Z,8.96
2023-04-20T23:10:09.518Z,8.94
2023-04-20T23:12:42.842Z,8.92
2023-04-20T23:15:14.748Z,8.89
2023-04-20T23:17:45.850Z,8.87
2023-04-20T23:20:15.545Z,8.86
2023-04-20T23:22:46.912Z,8.83
2023-04-20T23:25:17.794Z,8.86
2023-04-20T23:27:49.143Z,8.86
2023-04-20T23:30:20.682Z,8.85
2023-04-20T23:32:51.810Z,8.85
2023-04-20T23:35:23.636Z,8.85
2023-04-20T23:37:58.072Z,8.86
2023-04-20T23:40:29.471Z,8.84
2023-04-20T23:43:00.676Z,8.83
2023-04-20T23:45:31.831Z,8.79
2023-04-20T23:48:02.776Z,8.76
2023-04-20T23:50:33.109Z,8.76
2023-04-20T23:53:05.707Z,8.70
2023-04-20T23:55:37.065Z,8.68
2023-04-20T23:58:08.405Z,8.68
